Time;durP1;ratioP1;P1;durP2;ratioP2;P2;SDS_P1;SDS_P2;PMS_P1;PMS_P2;Temp;Humidity;BMP_temperature;BMP_pressure;BME280_temperature;BME280_humidity;BME280_pressure;Samples;Min_cycle;Max_cycle;Signal;HPM_P1;HPM_P2
2022/06/11 00:00:57;;;;;;;12.35;7.75;;;16.30;99.90;;;;;;5013422;28;20112;-69
2022/06/11 00:03:23;;;;;;;9.73;7.43;;;16.20;99.90;;;;;;5025954;28;20120;-69
2022/06/11 00:05:50;;;;;;;10.73;7.40;;;16.20;99.90;;;;;;5031797;28;20397;-69
2022/06/11 00:08:16;;;;;;;11.55;8.27;;;16.10;99.90;;;;;;5030136;28;20128;-69
2022/06/11 00:10:43;;;;;;;13.02;8.02;;;16.00;99.90;;;;;;5013910;28;20085;-69
2022/06/11 00:13:09;;;;;;;11.15;8.55;;;15.90;99.90;;;;;;5010634;28;20103;-69
2022/06/11 00:15:35;;;;;;;14.27;8.30;;;15.90;99.90;;;;;;5031571;28;20125;-69
2022/06/11 00:18:02;;;;;;;16.58;7.70;;;15.80;99.90;;;;;;5029732;28;20436;-69
2022/06/11 00:20:29;;;;;;;13.82;8.82;;;15.80;99.90;;;;;;5029928;28;20041;-69
2022/06/11 00:22:55;;;;;;;11.05;8.90;;;15.80;99.90;;;;;;5030047;28;20457;-69
2022/06/11 00:25:21;;;;;;;13.15;8.98;;;15.70;99.90;;;;;;5028556;28;20128;-69
2022/06/11 00:27:48;;;;;;;12.95;8.35;;;15.70;99.90;;;;;;5013303;28;20539;-69
2022/06/11 00:30:14;;;;;;;11.15;8.57;;;15.60;99.90;;;;;;5030249;28;20048;-69
2022/06/11 00:32:41;;;;;;;11.07;8.80;;;15.60;99.90;;;;;;5028212;28;20053;-69
2022/06/11 00:35:08;;;;;;;14.20;8.48;;;15.50;99.90;;;;;;5012332;28;20037;-69
2022/06/11 00:37:35;;;;;;;12.98;8.82;;;15.50;99.90;;;;;;5012224;28;20045;-69
2022/06/11 00:40:02;;;;;;;17.70;10.10;;;15.40;99.90;;;;;;4996603;28;20397;-69
2022/06/11 00:42:32;;;;;;;16.02;8.85;;;15.40;99.90;;;;;;4995725;28;20034;-70
2022/06/11 00:45:15;;;;;;;12.95;8.77;;;15.40;99.90;;;;;;5011560;28;20076;-69
2022/06/11 00:47:42;;;;;;;10.07;7.97;;;15.30;99.90;;;;;;5030531;28;20045;-69
2022/06/11 00:50:21;;;;;;;14.25;9.18;;;15.30;99.90;;;;;;5012874;28;20047;-69
2022/06/11 00:52:48;;;;;;;12.45;8.18;;;15.20;99.90;;;;;;5028533;28;20026;-69
2022/06/11 00:55:26;;;;;;;13.05;8.88;;;15.20;99.90;;;;;;5029132;28;20108;-69
2022/06/11 00:58:07;;;;;;;13.82;7.72;;;15.10;99.90;;;;;;5030816;28;20525;-69
2022/06/11 01:00:46;;;;;;;11.07;8.23;;;15.10;99.90;;;;;;5012157;28;20041;-69
2022/06/11 01:03:17;;;;;;;10.68;8.00;;;15.00;99.90;;;;;;5009668;28;20610;-69
2022/06/11 01:05:50;;;;;;;12.00;9.02;;;15.00;99.90;;;;;;5012199;28;20044;-69
2022/06/11 01:08:45;;;;;;;11.35;8.80;;;15.00;99.90;;;;;;5010234;28;20045;-69
2022/06/11 01:11:29;;;;;;;13.45;8.75;;;15.00;99.90;;;;;;5011562;28;20073;-69
2022/06/11 01:14:32;;;;;;;10.80;8.25;;;15.00;99.90;;;;;;5026738;28;20455;-69
2022/06/11 01:17:09;;;;;;;11.27;7.30;;;15.00;99.90;;;;;;5029492;28;20034;-69
2022/06/11 01:20:06;;;;;;;10.43;8.20;;;14.90;99.90;;;;;;5027868;28;20043;-69
2022/06/11 01:22:44;;;;;;;9.02;7.35;;;14.90;99.90;;;;;;5028857;28;20474;-69
2022/06/11 01:25:27;;;;;;;8.50;7.65;;;14.80;99.90;;;;;;5002106;28;20068;-69
2022/06/11 01:28:17;;;;;;;9.85;8.15;;;14.80;99.90;;;;;;5027960;28;20496;-69
2022/06/11 01:30:51;;;;;;;9.35;7.65;;;14.70;99.90;;;;;;5002577;28;20050;-69
2022/06/11 01:33:37;;;;;;;12.30;7.68;;;14.70;99.90;;;;;;5008818;28;20106;-69
2022/06/11 01:36:06;;;;;;;9.25;7.82;;;14.60;99.90;;;;;;5028468;28;20076;-69
2022/06/11 01:38:50;;;;;;;11.70;8.80;;;14.60;99.90;;;;;;5028303;28;20069;-69
2022/06/11 01:41:42;;;;;;;11.30;8.27;;;14.60;99.90;;;;;;5028763;28;20578;-69
2022/06/11 01:44:17;;;;;;;16.92;8.82;;;14.60;99.90;;;;;;5000854;28;20132;-69
2022/06/11 01:46:47;;;;;;;9.30;8.13;;;14.50;99.90;;;;;;5011159;28;20049;-69
2022/06/11 01:49:21;;;;;;;10.25;7.65;;;14.50;99.90;;;;;;5011883;28;20172;-69
2022/06/11 01:51:57;;;;;;;13.10;8.85;;;14.50;99.90;;;;;;5010937;28;20050;-69
2022/06/11 01:54:33;;;;;;;16.23;9.30;;;14.40;99.90;;;;;;5010681;28;20056;-69
2022/06/11 01:57:27;;;;;;;13.55;9.15;;;14.40;99.90;;;;;;5010590;28;20053;-69
2022/06/11 02:00:08;;;;;;;14.55;8.70;;;14.40;99.90;;;;;;5011197;28;20049;-69
2022/06/11 02:02:49;;;;;;;13.25;9.35;;;14.40;99.90;;;;;;5010345;28;20038;-69
2022/06/11 02:05:25;;;;;;;11.75;8.40;;;14.40;99.90;;;;;;5008382;28;20045;-69
2022/06/11 02:08:06;;;;;;;10.95;8.02;;;14.30;99.90;;;;;;5027723;28;20113;-69
2022/06/11 02:10:34;;;;;;;10.77;8.98;;;14.30;99.90;;;;;;5023622;28;20048;-69
2022/06/11 02:13:07;;;;;;;14.20;9.60;;;14.40;99.90;;;;;;5010995;28;20179;-69
2022/06/11 02:15:49;;;;;;;11.95;9.32;;;14.40;99.90;;;;;;5007458;28;20049;-70
2022/06/11 02:18:18;;;;;;;12.07;9.95;;;14.40;99.90;;;;;;5030165;28;20397;-70
2022/06/11 02:20:53;;;;;;;13.73;10.88;;;14.40;99.90;;;;;;4990789;28;20056;-70
2022/06/11 02:23:25;;;;;;;13.88;9.73;;;14.30;99.90;;;;;;5022792;28;20176;-70
2022/06/11 02:25:55;;;;;;;13.48;9.27;;;14.30;99.90;;;;;;5029777;28;20045;-70
2022/06/11 02:28:26;;;;;;;10.82;8.93;;;14.30;99.90;;;;;;5008095;28;20048;-69
2022/06/11 02:30:54;;;;;;;12.75;8.30;;;14.30;99.90;;;;;;5010619;28;20061;-70
2022/06/11 02:33:21;;;;;;;13.07;9.15;;;14.20;99.90;;;;;;5008967;28;20037;-70
2022/06/11 02:35:50;;;;;;;12.00;9.00;;;14.20;99.90;;;;;;5010758;28;20041;-70
2022/06/11 02:38:19;;;;;;;10.55;8.65;;;14.20;99.90;;;;;;5012004;28;20034;-70
2022/06/11 02:41:01;;;;;;;12.60;8.05;;;14.20;99.90;;;;;;5013661;28;20076;-70
2022/06/11 02:43:27;;;;;;;17.05;10.88;;;14.20;99.90;;;;;;5009125;28;20045;-70
2022/06/11 02:45:54;;;;;;;13.10;8.40;;;14.20;99.90;;;;;;5027324;28;20072;-70
2022/06/11 02:48:21;;;;;;;10.48;8.10;;;14.20;99.90;;;;;;5011984;28;20041;-70
2022/06/11 02:50:48;;;;;;;12.77;7.97;;;14.20;99.90;;;;;;5004909;28;20046;-70
2022/06/11 02:53:14;;;;;;;10.23;7.53;;;14.10;99.90;;;;;;5028649;28;20099;-70
2022/06/11 02:55:41;;;;;;;11.82;8.25;;;14.10;99.90;;;;;;5027630;28;20497;-70
2022/06/11 02:58:09;;;;;;;13.27;8.35;;;14.00;99.90;;;;;;4994630;28;20042;-70
2022/06/11 03:00:41;;;;;;;14.40;8.65;;;14.00;99.90;;;;;;5007312;28;20041;-70
2022/06/11 03:03:07;;;;;;;11.45;7.65;;;13.90;99.90;;;;;;5029480;28;20041;-70
2022/06/11 03:05:36;;;;;;;11.70;8.02;;;13.90;99.90;;;;;;5014685;28;20041;-70
2022/06/11 03:08:03;;;;;;;14.20;9.88;;;13.90;99.90;;;;;;5012908;28;20041;-70
2022/06/11 03:10:29;;;;;;;11.85;10.25;;;13.90;99.90;;;;;;5031461;28;20440;-70
2022/06/11 03:12:57;;;;;;;11.70;9.27;;;13.90;99.90;;;;;;5015271;28;20042;-70
2022/06/11 03:15:24;;;;;;;16.20;10.10;;;13.90;99.90;;;;;;5012837;28;20041;-69
2022/06/11 03:17:52;;;;;;;11.82;9.23;;;13.90;99.90;;;;;;5014707;28;20057;-69
2022/06/11 03:20:19;;;;;;;14.25;11.27;;;13.80;99.90;;;;;;5014904;28;20041;-69
2022/06/11 03:22:45;;;;;;;11.98;9.50;;;13.80;99.90;;;;;;5014262;28;20148;-69
2022/06/11 03:25:12;;;;;;;14.02;10.55;;;13.80;99.90;;;;;;5015286;28;20037;-69
2022/06/11 03:27:39;;;;;;;13.95;10.63;;;13.80;99.90;;;;;;5015122;28;20041;-69
2022/06/11 03:30:09;;;;;;;17.02;10.50;;;13.80;99.90;;;;;;5014966;28;20091;-69
2022/06/11 03:32:35;;;;;;;15.30;11.88;;;13.80;99.90;;;;;;5014977;28;20064;-69
2022/06/11 03:35:02;;;;;;;14.45;12.32;;;13.70;99.90;;;;;;5032548;28;20037;-69
2022/06/11 03:37:28;;;;;;;15.82;12.45;;;13.70;99.90;;;;;;5013390;28;20096;-69
2022/06/11 03:39:54;;;;;;;19.83;13.52;;;13.80;99.90;;;;;;5012494;28;20152;-69
2022/06/11 03:42:19;;;;;;;12.95;11.10;;;13.80;99.90;;;;;;5014249;28;20459;-69
2022/06/11 03:44:45;;;;;;;14.02;11.15;;;13.80;99.90;;;;;;5013842;28;20060;-69
2022/06/11 03:47:11;;;;;;;16.70;11.27;;;13.80;99.90;;;;;;5013135;28;20046;-69
2022/06/11 03:49:37;;;;;;;16.15;11.88;;;13.80;99.90;;;;;;5013467;28;20052;-69
2022/06/11 03:52:04;;;;;;;14.82;10.90;;;13.80;99.90;;;;;;5009804;28;20045;-69
2022/06/11 03:54:30;;;;;;;15.07;10.35;;;13.90;99.90;;;;;;5010942;28;20103;-69
2022/06/11 03:56:56;;;;;;;17.67;10.32;;;13.90;99.90;;;;;;4997088;28;20129;-70
2022/06/11 03:59:22;;;;;;;22.75;10.90;;;14.00;99.90;;;;;;5013688;28;20199;-69
2022/06/11 04:01:49;;;;;;;14.40;10.20;;;14.00;99.90;;;;;;5013297;28;20037;-69
2022/06/11 04:04:18;;;;;;;12.13;8.98;;;14.00;99.90;;;;;;5014696;28;20084;-69
2022/06/11 04:06:56;;;;;;;16.67;10.20;;;14.00;99.90;;;;;;5012766;28;20142;-69
2022/06/11 04:09:29;;;;;;;15.68;9.85;;;14.10;99.90;;;;;;5008382;28;20132;-69
2022/06/11 04:11:55;;;;;;;15.00;8.60;;;14.10;99.90;;;;;;5027921;28;20041;-69
2022/06/11 04:14:21;;;;;;;15.95;8.00;;;14.20;99.90;;;;;;5014177;28;20050;-69
2022/06/11 04:17:01;;;;;;;18.35;7.93;;;14.20;99.90;;;;;;5013141;28;20049;-69
2022/06/11 04:19:31;;;;;;;18.70;6.95;;;14.20;99.90;;;;;;5031738;28;20037;-69
2022/06/11 04:21:58;;;;;;;19.20;6.97;;;14.30;99.90;;;;;;4985777;28;20041;-69
2022/06/11 04:24:25;;;;;;;12.85;6.55;;;14.30;99.90;;;;;;4997423;28;20053;-69
2022/06/11 04:26:54;;;;;;;17.38;6.18;;;14.40;99.90;;;;;;5025677;28;20049;-70
2022/06/11 04:29:23;;;;;;;16.48;6.05;;;14.50;99.90;;;;;;5013737;28;20034;-70
2022/06/11 04:31:51;;;;;;;15.55;5.30;;;14.60;99.90;;;;;;5012661;28;20393;-70
2022/06/11 04:34:17;;;;;;;15.10;5.47;;;14.60;99.90;;;;;;5013487;28;20107;-70
2022/06/11 04:36:45;;;;;;;13.73;4.63;;;14.70;99.90;;;;;;5007423;28;20432;-70
2022/06/11 04:39:14;;;;;;;15.48;4.88;;;14.80;99.90;;;;;;5012398;28;20045;-70
2022/06/11 04:41:41;;;;;;;16.42;3.97;;;14.80;99.90;;;;;;5010333;28;20045;-70
2022/06/11 04:44:07;;;;;;;11.48;3.97;;;14.90;99.90;;;;;;5013182;28;20103;-70
2022/06/11 04:46:34;;;;;;;16.35;4.22;;;15.00;99.90;;;;;;5012105;28;20045;-70
2022/06/11 04:48:59;;;;;;;15.68;4.13;;;15.00;99.90;;;;;;5013103;28;20172;-70
2022/06/11 04:51:26;;;;;;;13.90;3.40;;;15.10;99.90;;;;;;5010630;28;20075;-70
2022/06/11 04:53:52;;;;;;;14.90;3.50;;;15.30;99.90;;;;;;5008508;28;20363;-70
2022/06/11 04:56:21;;;;;;;13.98;3.55;;;15.30;99.90;;;;;;5003629;28;20065;-70
2022/06/11 04:58:47;;;;;;;14.10;4.00;;;15.60;99.90;;;;;;5009386;28;20045;-70
2022/06/11 05:01:13;;;;;;;12.07;3.08;;;16.00;99.90;;;;;;5008870;28;20120;-70
2022/06/11 05:03:40;;;;;;;13.27;3.05;;;16.50;99.90;;;;;;5007245;28;20041;-70
2022/06/11 05:06:06;;;;;;;15.70;3.50;;;16.90;99.90;;;;;;5008216;28;20046;-70
2022/06/11 05:08:32;;;;;;;14.30;3.40;;;17.20;99.90;;;;;;5007453;28;20084;-70
2022/06/11 05:10:58;;;;;;;16.23;3.03;;;17.20;99.90;;;;;;5010001;28;20038;-70
2022/06/11 05:13:24;;;;;;;16.15;3.65;;;17.10;99.90;;;;;;5006649;28;20439;-70
2022/06/11 05:15:53;;;;;;;9.65;2.72;;;17.30;99.90;;;;;;5009349;28;20097;-70
2022/06/11 05:18:20;;;;;;;12.10;2.80;;;17.20;99.90;;;;;;5009462;28;20045;-70
2022/06/11 05:20:46;;;;;;;13.40;2.90;;;17.10;99.90;;;;;;5008427;28;20047;-70
2022/06/11 05:23:12;;;;;;;10.38;3.00;;;17.00;99.90;;;;;;5008609;28;20394;-70
2022/06/11 05:25:39;;;;;;;12.07;3.17;;;16.90;99.90;;;;;;5008525;28;20038;-70
2022/06/11 05:28:11;;;;;;;14.20;2.97;;;16.90;99.90;;;;;;5007772;28;20049;-70
2022/06/11 05:30:37;;;;;;;14.90;3.72;;;16.80;99.90;;;;;;5007786;28;20054;-71
2022/06/11 05:33:03;;;;;;;13.93;3.42;;;16.80;99.90;;;;;;5008558;28;20050;-70
2022/06/11 05:35:31;;;;;;;14.68;3.67;;;16.80;99.90;;;;;;5009335;28;20113;-70
2022/06/11 05:38:00;;;;;;;15.05;3.47;;;16.80;99.90;;;;;;5007816;28;20665;-70
2022/06/11 05:40:30;;;;;;;12.90;3.63;;;16.90;99.90;;;;;;5011317;28;20037;-70
2022/06/11 05:42:56;;;;;;;14.50;3.20;;;16.90;99.90;;;;;;5007665;28;20048;-70
2022/06/11 05:45:31;;;;;;;17.73;4.28;;;17.00;99.90;;;;;;5008806;28;20038;-70
2022/06/11 05:47:58;;;;;;;12.30;3.70;;;17.00;99.90;;;;;;5006414;28;20125;-70
2022/06/11 05:50:31;;;;;;;17.15;3.58;;;17.00;99.90;;;;;;5009589;28;20044;-70
2022/06/11 05:53:01;;;;;;;12.77;3.90;;;17.10;99.90;;;;;;5007310;28;20057;-70
2022/06/11 05:55:31;;;;;;;14.32;3.67;;;17.20;99.90;;;;;;5012885;28;20076;-70
2022/06/11 05:57:59;;;;;;;16.27;3.55;;;17.20;99.90;;;;;;5011930;28;20045;-70
2022/06/11 06:00:28;;;;;;;19.73;3.80;;;17.30;99.90;;;;;;5027009;28;20037;-70
2022/06/11 06:02:54;;;;;;;11.55;3.38;;;17.40;99.90;;;;;;5011097;28;20564;-70
2022/06/11 06:05:24;;;;;;;16.55;3.45;;;17.50;99.90;;;;;;5012707;28;20160;-70
2022/06/11 06:07:49;;;;;;;14.80;3.83;;;17.60;99.90;;;;;;5010211;28;20053;-70
2022/06/11 06:10:15;;;;;;;12.45;3.55;;;17.70;99.90;;;;;;5011544;28;20042;-70
2022/06/11 06:12:41;;;;;;;16.33;3.75;;;17.70;99.90;;;;;;4994515;28;20054;-70
2022/06/11 06:15:14;;;;;;;19.77;3.72;;;17.80;99.90;;;;;;5007220;28;20111;-71
2022/06/11 06:17:41;;;;;;;18.20;3.70;;;17.90;99.90;;;;;;4991709;28;20113;-71
2022/06/11 06:20:10;;;;;;;17.58;4.53;;;17.90;99.90;;;;;;5027197;28;20284;-70
2022/06/11 06:22:36;;;;;;;14.90;3.92;;;18.00;99.90;;;;;;4997114;28;20496;-70
2022/06/11 06:25:03;;;;;;;17.60;3.45;;;18.10;99.90;;;;;;5010979;28;20041;-70
2022/06/11 06:27:29;;;;;;;19.88;3.90;;;18.10;99.90;;;;;;5010762;28;20121;-70
2022/06/11 06:29:55;;;;;;;18.08;4.15;;;18.20;99.90;;;;;;5028025;28;20073;-70
2022/06/11 06:32:20;;;;;;;14.95;3.60;;;18.30;99.90;;;;;;5018375;28;20087;-70
2022/06/11 06:34:46;;;;;;;15.75;4.13;;;18.30;99.90;;;;;;5002792;28;20053;-71
2022/06/11 06:37:12;;;;;;;15.55;4.40;;;18.30;99.90;;;;;;5029326;28;20095;-70
2022/06/11 06:39:39;;;;;;;18.13;3.88;;;18.40;99.90;;;;;;5029416;28;20094;-71
2022/06/11 06:42:06;;;;;;;22.35;4.28;;;18.40;99.90;;;;;;5032897;28;20174;-70
2022/06/11 06:44:32;;;;;;;15.43;4.18;;;18.50;99.90;;;;;;5013451;28;20053;-70
2022/06/11 06:46:58;;;;;;;16.90;4.22;;;18.50;99.90;;;;;;5015207;28;20080;-70
2022/06/11 06:49:24;;;;;;;14.98;3.72;;;18.60;99.90;;;;;;5015419;28;20497;-70
2022/06/11 06:51:50;;;;;;;15.32;3.58;;;18.70;99.90;;;;;;5013405;28;20095;-69
2022/06/11 06:54:16;;;;;;;15.05;3.83;;;18.80;99.90;;;;;;5030628;28;20065;-70
2022/06/11 06:56:43;;;;;;;15.93;3.75;;;18.90;99.90;;;;;;5015144;28;20056;-70
2022/06/11 06:59:09;;;;;;;18.88;4.25;;;19.00;99.90;;;;;;5017874;28;20041;-69
2022/06/11 07:01:34;;;;;;;21.58;4.20;;;19.10;99.90;;;;;;5017222;28;20046;-70
2022/06/11 07:04:00;;;;;;;19.27;3.80;;;19.20;99.90;;;;;;4995426;28;20081;-70
2022/06/11 07:06:26;;;;;;;17.95;4.47;;;19.30;99.90;;;;;;5013980;28;20353;-70
2022/06/11 07:08:53;;;;;;;19.45;3.85;;;19.40;99.90;;;;;;5013014;28;20541;-70
2022/06/11 07:11:20;;;;;;;17.80;4.05;;;19.50;99.90;;;;;;5010748;28;20710;-70
2022/06/11 07:13:46;;;;;;;17.58;4.60;;;19.50;99.90;;;;;;5013838;28;20115;-70
2022/06/11 07:16:16;;;;;;;17.90;4.18;;;19.40;99.90;;;;;;5029136;28;20038;-70
2022/06/11 07:18:49;;;;;;;17.67;3.88;;;19.30;99.90;;;;;;4994611;28;20112;-70
2022/06/11 07:21:24;;;;;;;17.15;5.20;;;19.30;99.90;;;;;;5013049;28;20049;-69
2022/06/11 07:23:51;;;;;;;;;;;19.50;99.90;;;;;;5013341;28;20386;-70
2022/06/11 07:26:22;;;;;;;16.77;4.78;;;19.50;99.90;;;;;;5011452;28;20463;-69
2022/06/11 07:28:53;;;;;;;20.63;4.25;;;19.70;99.90;;;;;;5010462;28;20112;-70
2022/06/11 07:31:19;;;;;;;24.10;4.63;;;19.80;99.90;;;;;;5010716;28;20133;-70
2022/06/11 07:33:45;;;;;;;21.90;4.38;;;19.80;99.90;;;;;;5009453;28;20133;-70
2022/06/11 07:36:12;;;;;;;17.98;3.88;;;20.00;99.90;;;;;;5010735;28;20052;-71
2022/06/11 07:38:38;;;;;;;20.02;4.00;;;20.00;99.90;;;;;;5013531;28;20116;-71
2022/06/11 07:41:04;;;;;;;20.55;4.75;;;20.10;99.90;;;;;;5019401;28;20121;-71
2022/06/11 07:43:31;;;;;;;21.98;6.20;;;20.10;99.90;;;;;;5012924;28;20053;-71
2022/06/11 07:45:57;;;;;;;21.63;4.82;;;20.30;99.90;;;;;;5012986;28;20108;-71
2022/06/11 07:48:23;;;;;;;18.13;3.53;;;20.50;99.90;;;;;;4989127;28;20046;-70
2022/06/11 07:50:50;;;;;;;19.33;4.30;;;20.60;99.90;;;;;;5030530;28;20081;-71
2022/06/11 07:53:18;;;;;;;18.85;4.25;;;20.70;99.90;;;;;;5029614;28;20048;-71
2022/06/11 07:55:46;;;;;;;17.00;4.00;;;20.80;99.90;;;;;;5012905;28;20045;-71
2022/06/11 07:58:14;;;;;;;18.55;4.20;;;20.80;99.90;;;;;;5014820;28;20107;-71
2022/06/11 08:00:47;;;;;;;20.88;4.72;;;20.70;99.90;;;;;;5009365;28;20112;-71
2022/06/11 08:03:12;;;;;;;17.05;4.90;;;20.80;99.90;;;;;;5031326;28;20087;-71
2022/06/11 08:05:41;;;;;;;19.65;4.75;;;21.00;99.90;;;;;;5011433;28;20057;-71
2022/06/11 08:08:07;;;;;;;20.92;4.43;;;21.20;99.90;;;;;;5012178;28;20049;-71
2022/06/11 08:10:35;;;;;;;22.95;4.88;;;21.30;99.90;;;;;;5012112;28;20056;-72
2022/06/11 08:13:02;;;;;;;17.00;4.55;;;21.30;99.90;;;;;;5014425;28;20045;-71
2022/06/11 08:15:28;;;;;;;18.98;4.63;;;21.40;99.90;;;;;;5009715;28;20049;-71
2022/06/11 08:17:54;;;;;;;17.95;4.20;;;21.70;99.90;;;;;;5012978;28;20045;-71
2022/06/11 08:20:24;;;;;;;18.30;4.78;;;21.70;99.90;;;;;;5014276;28;20110;-72
2022/06/11 08:22:50;;;;;;;22.42;8.48;;;21.70;99.90;;;;;;5027395;28;20130;-72
2022/06/11 08:25:17;;;;;;;20.10;5.63;;;21.70;99.90;;;;;;5014461;28;20504;-71
2022/06/11 08:27:44;;;;;;;20.33;4.95;;;21.80;99.90;;;;;;5005965;28;20053;-71
2022/06/11 08:30:12;;;;;;;18.58;4.32;;;21.80;99.90;;;;;;5013259;28;20057;-71
2022/06/11 08:32:37;;;;;;;25.90;12.18;;;22.10;99.90;;;;;;5010650;28;20139;-71
2022/06/11 08:35:04;;;;;;;19.30;5.68;;;22.20;99.90;;;;;;5013656;28;20411;-71
2022/06/11 08:37:29;;;;;;;19.20;4.70;;;22.20;99.90;;;;;;5012552;28;20050;-72
2022/06/11 08:39:55;;;;;;;18.15;4.43;;;22.20;99.90;;;;;;5013941;28;20071;-71
2022/06/11 08:42:36;;;;;;;16.90;4.13;;;22.50;99.90;;;;;;5031319;28;20044;-71
2022/06/11 08:45:24;;;;;;;16.33;4.07;;;22.40;99.90;;;;;;5010144;28;20183;-71
2022/06/11 08:47:57;;;;;;;19.75;9.05;;;22.30;97.90;;;;;;5012059;28;20118;-71
2022/06/11 08:50:31;;;;;;;17.77;5.40;;;22.10;99.90;;;;;;5029346;28;20061;-71
2022/06/11 08:52:57;;;;;;;19.38;4.63;;;22.50;99.90;;;;;;5009804;28;20397;-71
2022/06/11 08:55:29;;;;;;;17.70;4.65;;;23.10;99.90;;;;;;5031715;28;20053;-71
2022/06/11 08:58:14;;;;;;;17.30;4.07;;;23.70;99.90;;;;;;5029703;28;20391;-71
2022/06/11 09:01:24;;;;;;;16.63;3.63;;;24.30;99.90;;;;;;5031394;28;20335;-72
2022/06/11 09:04:04;;;;;;;16.88;4.15;;;24.70;93.50;;;;;;5029919;28;20095;-72
2022/06/11 09:06:53;;;;;;;19.38;3.95;;;24.60;93.40;;;;;;5031937;28;20040;-72
2022/06/11 09:09:25;;;;;;;17.25;3.75;;;23.90;89.70;;;;;;5030748;28;20049;-72
2022/06/11 09:12:35;;;;;;;15.25;3.55;;;23.40;92.40;;;;;;5029500;28;20065;-72
2022/06/11 09:15:07;;;;;;;17.00;4.10;;;23.60;90.50;;;;;;4989664;28;20375;-72
2022/06/11 09:17:33;;;;;;;16.25;4.03;;;23.80;93.10;;;;;;5010901;28;20045;-72
2022/06/11 09:20:26;;;;;;;16.70;4.05;;;24.00;91.90;;;;;;5030622;28;20041;-72
2022/06/11 09:23:03;;;;;;;14.70;3.45;;;24.30;87.50;;;;;;5008142;28;20053;-72
2022/06/11 09:25:34;;;;;;;13.27;3.55;;;24.30;90.20;;;;;;5031672;28;20053;-73
2022/06/11 09:28:20;;;;;;;12.48;2.90;;;24.40;84.70;;;;;;5012487;28;20080;-72
2022/06/11 09:30:53;;;;;;;15.10;3.83;;;24.40;81.20;;;;;;4994807;28;20057;-72
2022/06/11 09:33:28;;;;;;;12.15;3.13;;;24.20;81.30;;;;;;5011290;28;20045;-73
2022/06/11 09:36:01;;;;;;;13.57;3.35;;;24.20;83.50;;;;;;5010183;28;20053;-72
2022/06/11 09:38:50;;;;;;;13.82;3.17;;;24.20;80.20;;;;;;5028083;28;20111;-73
2022/06/11 09:41:40;;;;;;;14.45;3.28;;;24.20;80.20;;;;;;5013569;28;20151;-73
2022/06/11 09:44:25;;;;;;;16.25;4.03;;;24.20;78.20;;;;;;4995004;28;20064;-72
2022/06/11 09:47:20;;;;;;;14.05;5.22;;;24.20;78.00;;;;;;5012519;28;20064;-71
2022/06/11 09:49:55;;;;;;;12.23;3.50;;;24.10;78.90;;;;;;5030950;28;20485;-73
2022/06/11 09:52:37;;;;;;;12.85;3.10;;;23.80;77.20;;;;;;5012240;28;20053;-73
2022/06/11 09:55:27;;;;;;;12.60;2.72;;;23.70;75.70;;;;;;5010782;28;20050;-72
2022/06/11 09:58:23;;;;;;;10.82;3.20;;;23.60;71.70;;;;;;5029027;28;20033;-72
2022/06/11 10:00:54;;;;;;;12.60;3.15;;;23.40;74.60;;;;;;5012331;28;20132;-71
2022/06/11 10:03:41;;;;;;;9.25;2.63;;;23.30;76.00;;;;;;5010555;28;20502;-71
2022/06/11 10:06:19;;;;;;;13.85;2.97;;;23.20;71.00;;;;;;5011526;28;20061;-71
2022/06/11 10:09:03;;;;;;;11.50;2.78;;;23.00;74.20;;;;;;5027142;28;20146;-71
2022/06/11 10:11:56;;;;;;;12.55;3.00;;;22.80;72.00;;;;;;4993704;28;20448;-71
2022/06/11 10:14:38;;;;;;;11.85;2.88;;;22.60;74.40;;;;;;5014818;28;20119;-71
2022/06/11 10:17:28;;;;;;;9.23;2.33;;;22.30;72.90;;;;;;5015933;28;20053;-71
2022/06/11 10:20:00;;;;;;;14.13;3.53;;;22.20;75.50;;;;;;5017840;28;20126;-71
2022/06/11 10:22:38;;;;;;;11.68;2.78;;;22.00;77.30;;;;;;5013747;28;20111;-71
2022/06/11 10:25:29;;;;;;;13.90;3.40;;;22.10;76.80;;;;;;5012736;28;20049;-71
2022/06/11 10:28:08;;;;;;;12.20;3.45;;;22.20;77.00;;;;;;5032299;28;20041;-70
2022/06/11 10:30:44;;;;;;;10.80;2.72;;;22.20;78.20;;;;;;5013163;28;20125;-70
2022/06/11 10:33:42;;;;;;;27.05;21.23;;;22.10;75.40;;;;;;5015259;28;20084;-70
2022/06/11 10:36:17;;;;;;;10.48;2.63;;;22.00;73.70;;;;;;5034102;28;20037;-70
2022/06/11 10:39:05;;;;;;;15.02;3.20;;;22.00;77.20;;;;;;5030747;28;20041;-70
2022/06/11 10:41:36;;;;;;;14.07;3.17;;;22.20;77.00;;;;;;4999428;28;20089;-70
2022/06/11 10:44:22;;;;;;;12.85;2.65;;;22.30;75.30;;;;;;5014901;28;20060;-70
2022/06/11 10:46:47;;;;;;;11.88;2.58;;;22.70;77.90;;;;;;5015755;28;20045;-70
2022/06/11 10:49:15;;;;;;;16.83;9.02;;;23.20;76.50;;;;;;5032749;28;20164;-71
2022/06/11 10:51:46;;;;;;;13.52;4.00;;;23.30;73.30;;;;;;5013079;28;20207;-70
2022/06/11 10:54:21;;;;;;;12.07;2.85;;;23.40;71.90;;;;;;5031343;28;20061;-70
2022/06/11 10:56:52;;;;;;;10.45;2.38;;;23.50;69.20;;;;;;5033214;28;20092;-71
2022/06/11 10:59:23;;;;;;;12.77;3.17;;;23.40;70.30;;;;;;5026335;28;20108;-70
2022/06/11 11:02:02;;;;;;;12.77;2.45;;;23.30;71.00;;;;;;5032067;28;20045;-71
2022/06/11 11:04:41;;;;;;;12.98;2.45;;;23.60;69.50;;;;;;5011518;28;20080;-71
2022/06/11 11:07:20;;;;;;;12.55;3.08;;;24.00;67.30;;;;;;5013333;28;20092;-71
2022/06/11 11:09:46;;;;;;;9.70;2.78;;;24.50;69.70;;;;;;4983832;28;20073;-71
2022/06/11 11:12:32;;;;;;;10.63;2.60;;;25.10;68.70;;;;;;5014522;28;20123;-72
2022/06/11 11:15:19;;;;;;;8.95;2.72;;;25.60;64.50;;;;;;5027245;28;20493;-72
2022/06/11 11:17:52;;;;;;;11.23;2.15;;;26.20;64.90;;;;;;5013164;28;20051;-72
2022/06/11 11:20:32;;;;;;;10.05;2.65;;;26.70;64.10;;;;;;5011370;28;20079;-72
2022/06/11 11:23:05;;;;;;;8.57;2.45;;;27.20;62.10;;;;;;5011406;28;20536;-73
2022/06/11 11:25:39;;;;;;;13.73;2.85;;;27.60;61.40;;;;;;5014088;28;20286;-72
2022/06/11 11:28:14;;;;;;;10.15;2.78;;;27.90;58.10;;;;;;5007358;28;20437;-73
2022/06/11 11:30:40;;;;;;;10.73;2.55;;;28.00;60.20;;;;;;4993080;28;20079;-73
2022/06/11 11:33:27;;;;;;;19.50;14.30;;;28.20;57.50;;;;;;5010352;28;20049;-73
2022/06/11 11:36:18;;;;;;;12.30;4.10;;;28.40;56.50;;;;;;5011655;28;20053;-72
2022/06/11 11:38:45;;;;;;;15.75;10.25;;;28.50;55.90;;;;;;5012737;28;20497;-72
2022/06/11 11:41:31;;;;;;;11.23;5.43;;;28.10;53.80;;;;;;5014839;28;20373;-72
2022/06/11 11:43:58;;;;;;;11.95;2.50;;;27.90;51.60;;;;;;5012180;28;20045;-72
2022/06/11 11:46:26;;;;;;;6.82;2.10;;;27.60;53.50;;;;;;5012199;28;20049;-72
2022/06/11 11:48:54;;;;;;;10.10;2.70;;;27.50;52.90;;;;;;5012303;28;20053;-72
2022/06/11 11:51:36;;;;;;;11.00;2.83;;;27.20;53.90;;;;;;5013342;28;20057;-72
2022/06/11 11:54:13;;;;;;;10.50;2.67;;;27.30;54.50;;;;;;5012298;28;20401;-72
2022/06/11 11:56:54;;;;;;;12.00;3.30;;;27.30;54.90;;;;;;5033372;28;20037;-72
2022/06/11 11:59:47;;;;;;;12.05;3.30;;;27.50;53.20;;;;;;5012796;28;20065;-73
2022/06/11 12:02:33;;;;;;;14.32;2.58;;;27.70;54.60;;;;;;5014547;28;20048;-73
2022/06/11 12:05:15;;;;;;;12.32;2.58;;;27.80;54.10;;;;;;5011990;28;20144;-72
2022/06/11 12:07:45;;;;;;;9.18;2.83;;;27.30;53.50;;;;;;5027417;28;20128;-72
2022/06/11 12:10:21;;;;;;;11.73;3.05;;;27.20;54.80;;;;;;5028949;28;20041;-72
2022/06/11 12:12:50;;;;;;;10.52;2.85;;;27.00;53.40;;;;;;5004482;28;20041;-72
2022/06/11 12:15:18;;;;;;;11.88;3.22;;;26.70;53.90;;;;;;4991255;28;20103;-72
2022/06/11 12:17:50;;;;;;;15.98;3.00;;;26.40;53.70;;;;;;5011081;28;20476;-72
2022/06/11 12:20:22;;;;;;;10.48;2.58;;;26.40;54.80;;;;;;5008988;28;20179;-72
2022/06/11 12:22:59;;;;;;;12.57;3.25;;;26.40;53.70;;;;;;5012384;28;20052;-72
2022/06/11 12:25:41;;;;;;;13.90;4.85;;;26.40;55.40;;;;;;5009960;28;20057;-72
2022/06/11 12:28:13;;;;;;;11.15;3.42;;;26.40;55.90;;;;;;5013565;28;20046;-72
2022/06/11 12:30:39;;;;;;;11.95;2.88;;;26.40;55.70;;;;;;5013107;28;20579;-72
2022/06/11 12:33:15;;;;;;;11.45;2.78;;;26.30;56.30;;;;;;5013121;28;20049;-72
2022/06/11 12:35:50;;;;;;;10.38;2.30;;;26.10;54.70;;;;;;5009509;28;20057;-72
2022/06/11 12:38:38;;;;;;;10.43;2.47;;;26.20;55.20;;;;;;5009681;28;20049;-71
2022/06/11 12:41:33;;;;;;;10.93;3.03;;;26.10;52.90;;;;;;5016750;28;20068;-72
2022/06/11 12:44:17;;;;;;;13.65;2.95;;;25.70;55.70;;;;;;5026426;28;20049;-71
2022/06/11 12:47:16;;;;;;;13.30;3.28;;;25.60;56.70;;;;;;5011152;28;20504;-72
2022/06/11 12:49:46;;;;;;;10.60;2.75;;;25.80;55.40;;;;;;5011708;28;20057;-71
2022/06/11 12:52:19;;;;;;;11.60;2.60;;;25.90;57.70;;;;;;5011782;28;20195;-72
2022/06/11 12:55:07;;;;;;;12.07;2.20;;;26.00;56.10;;;;;;5011909;28;20080;-71
2022/06/11 12:57:52;;;;;;;10.30;2.78;;;26.00;55.10;;;;;;5029653;28;20068;-71
2022/06/11 13:00:38;;;;;;;12.13;2.70;;;26.10;56.00;;;;;;5026417;28;20045;-71
2022/06/11 13:03:43;;;;;;;12.15;3.05;;;25.90;55.60;;;;;;4995089;28;20060;-71